Station Charts

 

Station Historical Data
 
Daily Summary for January 16, 2018 Units:  English    Metric   Both
« Previous Day
Next Day »
Daily Weekly Monthly Yearly Custom
  Current: High: Low: Average:
Temperature: 52.7 °F 53.2 °F 45.0 °F 48.2 °F
Dew Point: 40.5 °F 45.5 °F 40.2 °F 44 °F
Humidity: 63 % 93 % 63 % 86 %
Wind Speed: 4.7 mph 6.9 mph 0.0 mph 0.6 mph
Wind Gust: 4.7 mph 6.9 mph - -
Wind:SW - - SSW
Pressure: 30.24 in 30.24 in 30.02 in -
Precipitation: 0.28 in      
Historical Graphs
 
 
Tabular Data for January 16, 2018
Time Temperature Dew Point Pressure Wind Wind Speed Wind Gust Humidity Rainfall Rate (Hourly)
00:10 48.9 °F 44.6 °F 30.02 in Calm     85 % 0.00 in
00:15 48.9 °F 44.9 °F 30.02 in Calm     86 % 0.00 in
00:22 48.7 °F 45.0 °F 30.02 in North 1.2 mph   87 % 0.00 in
00:24 48.7 °F 45.0 °F 30.02 in Calm     87 % 0.00 in
00:31 48.6 °F 45.2 °F 30.02 in Calm     88 % 0.00 in
00:38 48.4 °F 45.3 °F 30.03 in Calm     89 % 0.01 in
00:43 48.4 °F 45.3 °F 30.03 in Calm     89 % 0.01 in
00:50 48.2 °F 45.4 °F 30.03 in Calm     90 % 0.01 in
00:59 47.8 °F 45.0 °F 30.03 in Calm     90 % 0.01 in
01:04 47.8 °F 45.3 °F 30.04 in Calm     91 % 0.03 in
01:09 47.7 °F 45.2 °F 30.04 in Calm     91 % 0.05 in
01:16 47.7 °F 45.2 °F 30.04 in Calm     91 % 0.05 in
01:26 47.5 °F 45.3 °F 30.04 in Calm     92 % 0.07 in
01:33 47.5 °F 45.3 °F 30.05 in Calm     92 % 0.08 in
01:44 47.5 °F 45.3 °F 30.05 in Calm     92 % 0.08 in
01:58 47.5 °F 45.3 °F 30.05 in Calm     92 % 0.09 in
02:09 47.3 °F 45.1 °F 30.05 in Calm     92 % 0.06 in
02:26 47.1 °F 45.2 °F 30.06 in Calm     93 % 0.06 in
02:34 47.1 °F 45.2 °F 30.06 in Calm     93 % 0.05 in
02:49 47.1 °F 44.9 °F 30.06 in Calm     92 % 0.04 in
02:57 47.1 °F 44.9 °F 30.06 in Calm     92 % 0.03 in
03:04 47.1 °F 44.9 °F 30.06 in Calm     92 % 0.03 in
03:22 46.9 °F 44.7 °F 30.06 in Calm     92 % 0.01 in
03:32 46.9 °F 44.7 °F 30.06 in Calm     92 % 0.00 in
03:44 46.8 °F 44.6 °F 30.06 in Calm     92 % 0.00 in
03:58 46.6 °F 44.7 °F 30.06 in Calm     93 % 0.00 in
04:18 46.2 °F 44.3 °F 30.08 in Calm     93 % 0.01 in
04:25 46.2 °F 44.3 °F 30.08 in Calm     93 % 0.01 in
04:30 46.2 °F 44.3 °F 30.08 in Calm     93 % 0.01 in
04:37 46.0 °F 44.1 °F 30.08 in Calm     93 % 0.02 in
04:45 46.2 °F 44.3 °F 30.08 in Calm     93 % 0.05 in
04:57 46.6 °F 44.7 °F 30.09 in Calm     93 % 0.09 in
05:03 46.8 °F 44.8 °F 30.09 in Calm     93 % 0.11 in
05:08 46.8 °F 44.8 °F 30.09 in Calm     93 % 0.12 in
05:18 46.8 °F 44.8 °F 30.09 in Calm     93 % 0.12 in
05:29 46.8 °F 44.8 °F 30.09 in Calm     93 % 0.13 in
05:41 46.8 °F 44.8 °F 30.09 in Calm     93 % 0.11 in
05:54 46.8 °F 44.8 °F 30.10 in Calm     93 % 0.06 in
05:59 46.8 °F 44.8 °F 30.10 in Calm     93 % 0.04 in
06:06 46.8 °F 44.8 °F 30.11 in Calm     93 % 0.02 in
06:14 46.8 °F 44.8 °F 30.11 in Calm     93 % 0.01 in
06:25 46.9 °F 45.0 °F 30.11 in Calm     93 % 0.00 in
06:35 46.9 °F 45.0 °F 30.11 in Calm     93 % 0.00 in
06:40 46.9 °F 45.0 °F 30.11 in Calm     93 % 0.00 in
06:47 46.8 °F 44.8 °F 30.11 in Calm     93 % 0.00 in
06:56 46.8 °F 44.8 °F 30.11 in Calm     93 % 0.00 in
07:07 46.6 °F 44.7 °F 30.12 in Calm     93 % 0.00 in
07:27 46.2 °F 44.0 °F 30.12 in Calm     92 % 0.00 in
07:32 46.0 °F 43.6 °F 30.12 in SE 2.3 mph   91 % 0.00 in
07:42 45.9 °F 43.4 °F 30.12 in Calm     91 % 0.00 in
07:51 45.7 °F 42.9 °F 30.12 in Calm     90 % 0.00 in
08:16 45.0 °F 42.8 °F 30.13 in Calm     92 % 0.00 in
08:30 45.0 °F 42.8 °F 30.14 in Calm     92 % 0.00 in
08:39 45.0 °F 42.8 °F 30.15 in Calm     92 % 0.00 in
08:54 45.1 °F 43.0 °F 30.16 in Calm     92 % 0.00 in
09:00 45.3 °F 42.8 °F 30.16 in Calm     91 % 0.00 in
09:09 45.7 °F 43.2 °F 30.17 in Calm     91 % 0.00 in
09:18 45.7 °F 43.2 °F 30.18 in Calm     91 % 0.00 in
09:24 45.9 °F 44.0 °F 30.18 in Calm     93 % 0.00 in
09:31 46.0 °F 44.1 °F 30.18 in Calm     93 % 0.00 in
09:54 46.9 °F 44.2 °F 30.19 in Calm     90 % 0.00 in
10:00 47.1 °F 44.3 °F 30.19 in Calm   2.0 mph 90 % 0.00 in
10:05 47.1 °F 44.3 °F 30.20 in Calm     90 % 0.00 in
10:12 47.5 °F 44.4 °F 30.20 in Calm     89 % 0.00 in
10:18 47.8 °F 45.0 °F 30.21 in Calm     90 % 0.00 in
10:38 49.8 °F 45.5 °F 30.22 in SW 1.2 mph   85 % 0.00 in
10:55 50.5 °F 44.9 °F 30.22 in Calm     81 % 0.00 in
11:02 50.7 °F 44.8 °F 30.22 in ENE 1.4 mph   80 % 0.00 in
11:15 50.9 °F 43.9 °F 30.22 in Calm     77 % 0.00 in
11:28 51.3 °F 44.6 °F 30.22 in Calm   1.4 mph 78 % 0.00 in
11:42 51.3 °F 44.0 °F 30.22 in SW 2.4 mph   76 % 0.00 in
11:57 50.9 °F 42.2 °F 30.22 in West 4.0 mph   72 % 0.00 in
12:18 50.5 °F 42.6 °F 30.22 in WSW 3.6 mph   74 % 0.00 in
12:26 50.5 °F 42.2 °F 30.22 in WNW 1.2 mph   73 % 0.00 in
12:35 51.3 °F 42.2 °F 30.22 in South 2.3 mph 2.3 mph 71 % 0.00 in
12:41 51.8 °F 42.3 °F 30.22 in South 2.3 mph 2.3 mph 70 % 0.00 in
12:53 52.0 °F 40.2 °F 30.22 in ENE 5.8 mph 5.8 mph 64 % 0.00 in
13:00 52.3 °F 40.9 °F 30.22 in NNW 4.6 mph 4.6 mph 65 % 0.00 in
13:05 52.5 °F 41.5 °F 30.22 in NW 3.5 mph 3.5 mph 66 % 0.00 in
13:26 53.2 °F 41.0 °F 30.22 in SSW 3.5 mph 3.5 mph 63 % 0.00 in
13:42 53.1 °F 40.8 °F 30.23 in Calm   1.4 mph 63 % 0.00 in
14:02 53.2 °F 43.3 °F 30.23 in Calm     69 % 0.00 in
14:10 53.2 °F 41.8 °F 30.23 in Calm     65 % 0.00 in
14:18 52.9 °F 41.4 °F 30.24 in Calm   1.4 mph 65 % 0.00 in
14:25 52.7 °F 42.0 °F 30.24 in Calm     67 % 0.00 in
14:32 52.5 °F 40.3 °F 30.24 in Calm     63 % 0.00 in
14:38 52.7 °F 40.5 °F 30.24 in West 6.9 mph 6.9 mph 63 % 0.00 in
14:45 52.7 °F 40.5 °F 30.24 in SW 4.7 mph 4.7 mph 63 % 0.00 in
Compliments of Weather Underground - 1.25 mb